Tiempo atmosférico en la estación meteorológica de Lanzarote Aeropuerto, Las Palmas (14 m.)



Fecha
DESCASC
Temp. máxima en grados centígrados (hora)
DESCASC
Temp. mínima en grados centígrados (hora)
DESCASC
Temp. media en grados centígrados
DESCASC
Racha de viento máxima en m/sg (hora)
DESCASC
Velocidad máxima media en intervalos de 10 minutos(hora)
DESCASC
Precipitaciones diarias en mm
DESCASC
Precipitaciones de 00:00 a 06:00 en mm
DESCASC
Precipitaciones de 06:00 a 12:00 en mm
DESCASC
Precipitaciones de 12:00 a 18:00 en mm
DESCASC
Precipitaciones de 18:00 a 24:00 en mm
DESCASC
22-04-2019 24 (15:10) 17.1 (05:00) 20.6 18.06 (16:20) 12.22 (15:50) 0 0 0 0 0
21-04-2019 23.6 (14:10) 15.6 (03:20) 19.6 15.28 (20:10) 11.11 (20:10) 0 0 0 0 0
20-04-2019 23 (14:20) 16 (07:00) 19.5 15.28 (20:10) 10.83 (10:30) 0 0 0 0 0
19-04-2019 23.6 (15:00) 15.8 (05:20) 19.7 15.28 (13:40) 11.11 (12:50) 0 0 0 0 0
18-04-2019 23.3 (13:10) 15.6 (00:00) 19.4 14.44 (14:40) 10.28 (15:50) 0 0 0 0 0
17-04-2019 25.1 (13:30) 14.8 (00:00) 20 13.33 (15:40) 9.72 (16:00) 0 0 0 0 0
16-04-2019 21.9 (14:10) 14.1 (00:00) 18 8.33 (07:40) 5.83 (11:40) 0 0 0 0 0
15-04-2019 25.1 (12:50) 16 (00:00) 20.6 11.67 (03:20) 8.33 (03:40) 0 0 0 0 0
14-04-2019 23.9 (11:10) 15.3 (00:00) 19.6 15.28 (22:00) 8.61 (06:40) 0 0 0 0 0
13-04-2019 24.8 (13:50) 14.9 (00:00) 19.8 16.94 (02:30) 12.22 (01:00) 0 0 0 0 0
12-04-2019 23.1 (15:10) 15.4 (00:00) 19.3 18.06 (15:10) 13.89 (14:10) 0 0 0 0 0
11-04-2019 22.8 (14:10) 15.9 (00:00) 19.3 18.89 (15:00) 14.44 (14:50) 0 0 0 0 0
10-04-2019 22.2 (16:00) 15.8 (00:00) 19 18.61 (17:20) 13.89 (20:50) 0 0 0 0 0
09-04-2019 23.2 (15:10) 15.2 (00:00) 19.2 13.89 (15:10) 10.56 (15:00) 0 0 0 0 0
08-04-2019 24.2 (13:30) 15.7 (00:00) 20 11.67 (10:40) 8.61 (18:30) 0 0 0 0 0
07-04-2019 23.4 (15:40) 13.7 (00:00) 18.5 12.78 (10:40) 8.33 (09:30) 0 0 0 0 0
06-04-2019 21.8 (15:30) 13.7 (00:00) 17.7 14.44 (14:30) 9.44 (10:20) 0.4 0.4 0 0 0
05-04-2019 22.9 (13:30) 14.2 (00:00) 18.5 15 (19:50) 10 (17:00) 1.6 0.1 0 1 0.5
04-04-2019 23.2 (14:10) 14.1 (00:00) 18.7 12.5 (14:20) 8.89 (16:20) 0 0 0 0 0
03-04-2019 24.2 (14:50) 15.8 (00:00) 20 13.89 (14:10) 8.89 (05:00) 0 0 0 0 0
02-04-2019 25.2 (17:50) 14.4 (00:00) 19.8 12.5 (18:40) 9.17 (19:10) 0 0 0 0 0
01-04-2019 21.3 (11:30) 14.7 (00:00) 18 7.22 (11:10) 4.44 (11:40) 0.1 0.1 0 0 0
31-03-2019 23.3 (15:50) 15.8 (00:00) 19.5 13.33 (14:50) 7.78 (13:20) 0.1 0.1 0 0 0
30-03-2019 22.5 (11:30) 13.2 (00:00) 17.8 10.83 (17:20) 5 (09:30) 0 0 0 0 0
29-03-2019 21.3 (13:40) 13.3 (00:00) 17.3 11.67 (19:20) 6.11 (18:40) 0 0 0 0 0
28-03-2019 21.1 (14:10) 13.7 (00:00) 17.4 7.22 (20:00) 4.44 (03:10) 0 0 0 0 0
27-03-2019 21.9 (15:40) 12.9 (00:00) 17.4 9.72 (15:00) 7.22 (15:00) 0 0 0 0 0
26-03-2019 20.1 (10:20) 13.3 (00:00) 16.7 8.33 (10:50) 6.67 (10:50) 18.5 0 8.7 9.8 0
25-03-2019 23.4 (13:40) 14.4 (00:00) 18.9 10.28 (15:10) 7.78 (15:40) 0 0 0 0 0

Gráficas

Temp. máximas Temp. mínimas Temp. medias Precipitaciones Rachas de viento máximas Velocidades máximas media en intervalos de 10 minutos

Datos horarios

Fecha y hora oficial Temperatura (ºC) Velocidad del viento (km/h) Dirección del viento Racha (km/h) Dirección de racha Precipitación (mm) Presión (hPa) Tendencia (hPa) Humedad (%)
2019-04-23 23:00:00 16.7 12 Norte 28 Norte 0 1014.1 2 72
2019-04-23 22:00:00 16.9 15 Noroeste 28 Norte 0 1013.5 1.7 71
2019-04-23 21:00:00 17.2 22 Norte 37 Norte 0 1013 1.5 67
2019-04-23 20:00:00 18.6 21 Norte 32 Norte 0 1012.1 0.9 58
2019-04-23 19:00:00 19.3 22 Norte 37 Norte 0 1011.8 0.7 56
2019-04-23 18:00:00 20.6 27 Norte 41 Norte 0 1011.5 0.2 53
2019-04-23 17:00:00 21.6 25 Norte 46 Norte 0 1011.2 0.2 51
2019-04-23 16:00:00 22.3 27 Norte 46 Norte 0 1011.1 -0.2 53
2019-04-23 15:00:00 22.2 32 Norte 54 Norte 0 1011.3 0.2 55
2019-04-23 14:00:00 21.3 37 Norte 59 Noroeste 0 1011 0.4 66
2019-04-23 13:00:00 20.5 31 Norte 42 Norte 0 1011.3 0.7 77
2019-04-23 12:00:00 21.4 24 Noroeste 52 Oeste 0 1011.1 1.1 64
2019-04-23 11:00:00 21.3 24 Noroeste 46 Noroeste 0 1010.6 1.2 60
2019-04-23 10:00:00 20 20 Noroeste 33 Noroeste 0 1010.6 1.5 66
2019-04-23 09:00:00 19 21 Oeste 33 Oeste 0 1010 0.9 68
2019-04-23 08:00:00 18.5 18 Oeste 39 Oeste 0 1009.4 0 72
2019-04-23 07:00:00 18.2 18 Noroeste 30 Noroeste 0 1009.1 -0.7 74
2019-04-23 06:00:00 18.5 14 Oeste 26 Oeste 0 1009.1 -1.3 66
2019-04-23 05:00:00 18.3 13 Oeste 28 Noroeste 0 1009.4 -1.7 60
2019-04-23 04:00:00 18.4 15 Noroeste 28 Noroeste 0 1009.8 -1.5 66
2019-04-23 03:00:00 18.4 16 Noroeste 26 Noroeste 0 1010.4 -0.6 67
2019-04-23 02:00:00 18.2 12 Noroeste 24 Norte 0 1011.1 0.1 74
2019-04-23 01:00:00 18.3 16 Norte 30 Noroeste 0 1011.3 0.6 78
2019-04-23 00:00:00 18.8 14 Noroeste 33 Noroeste 0 1011 0.7 67
2019-04-22 23:00:00 18.5 12 Noroeste 32 Noroeste 0 1011 0.8 67
2019-04-22 22:00:00 18.1 15 Noroeste 39 Oeste 0 1010.7 0.7 69
2019-04-22 21:00:00 18.3 21 Noroeste 39 Norte 0 1010.3 0.4 67
2019-04-22 20:00:00 19 21 Noroeste 41 Noroeste 0 1010.2 0.6 65
2019-04-22 19:00:00 20.5 27 Noroeste 54 Noroeste 0 1010 0.6 58
2019-04-22 18:00:00 21.4 35 Noroeste 50 Noroeste 0 1009.9 0.1 55
2019-04-22 17:00:00 22.3 37 Noroeste 65 Noroeste 0 1009.6 -1 53
2019-04-22 16:00:00 22.6 43 Noroeste 63 Noroeste 0 1009.4 -2 52
2019-04-22 15:00:00 23.2 42 Noroeste 61 Noroeste 0 1009.8 -1.5 51
2019-04-22 14:00:00 23.1 35 Noroeste 52 Noroeste 0 1010.6 -0.7 50
2019-04-22 13:00:00 22.4 26 Noroeste 42 Noroeste 0 1011.4 0.5 54
2019-04-22 12:00:00 22 28 Noroeste 46 Norte 0 1011.3 0.8 55
2019-04-22 11:00:00 21 28 Noroeste 45 Norte 0 1011.3 0.9 60
2019-04-22 10:00:00 20.1 27 Noroeste 50 Noroeste 0 1010.9 1 64
2019-04-22 09:00:00 18.8 37 Noroeste 54 Noroeste 0 1010.5 0.3 69
2019-04-22 08:00:00 17.6 29 Noroeste 48 Noroeste 0 1010.4 0.1 70
2019-04-22 07:00:00 17.4 29 Noroeste 42 Norte 0 1009.9 -0.3 71
2019-04-22 06:00:00 17.4 13 Noroeste 30 Oeste 0 1010.2 -0.6 78
2019-04-22 05:00:00 17.2 8 Norte 39 Norte 0 1010.3 -1.5 78
2019-04-22 04:00:00 17.4 24 Noroeste 50 Norte 0 1010.2 -2 73
2019-04-22 03:00:00 17.5 18 Noroeste 41 Noroeste 0 1010.8 -1.9 70
2019-04-22 02:00:00 17.7 16 Sudoeste 39 Noroeste 0 1011.8 -1.3 72
2019-04-22 01:00:00 17.9 9 Sudeste 32 Sudoeste 0 1012.2 -0.4 71
2019-04-22 00:00:00 18.2 13 Oeste 32 Noroeste 0 1012.7 0.7 71
2019-04-21 23:00:00 18.3 13 Noroeste 24 Noroeste 0 1013.1 2.4 71
2019-04-21 22:00:00 18.4 15 Noroeste 50 Noroeste 0 1012.6 1.6 71
2019-04-21 21:00:00 18.6 38 Noroeste 55 Noroeste 0 1012 0.8 74
2019-04-21 20:00:00 19.2 38 Noroeste 54 Noroeste 0 1010.7 -1 71
2019-04-21 19:00:00 20.7 35 Noroeste 46 Noroeste 0 1011 -1.1 63
2019-04-21 18:00:00 21.8 31 Noroeste 50 Norte 0 1011.2 -1.5 59
2019-04-21 17:00:00 22.2 28 Norte 45 Norte 0 1011.7 -1 55
2019-04-21 16:00:00 22.8 28 Norte 45 Norte 0 1012.1 -0.8 53
2019-04-21 15:00:00 22.9 28 Norte 46 Noroeste 0 1012.7 -0.5 53
2019-04-21 14:00:00 22.4 30 Norte 52 Norte 0 1012.7 0 56
2019-04-21 13:00:00 22.3 31 Norte 46 Norte 0 1012.9 0.4 55
2019-04-21 12:00:00 20.4 32 Norte 54 Noroeste 0 1013.2 1 64
2019-04-21 11:00:00 19.9 28 Noroeste 42 Noroeste 0 1012.7 0.9 67
2019-04-21 10:00:00 19.3 27 Norte 37 Norte 0 1012.5 1 65
2019-04-21 09:00:00 18.4 18 Norte 28 Norte 0 1012.2 0.7 71
2019-04-21 08:00:00 16.3 13 Norte 24 Oeste 0 1011.8 0.1 77
2019-04-21 07:00:00 16.2 11 Norte 26 Norte 0 1011.5 -0.4 76
2019-04-21 06:00:00 16.4 16 Norte 33 Norte 0 1011.5 -0.9 78
2019-04-21 05:00:00 15.8 21 Norte 33 Norte 0 1011.7 -1.5 77
2019-04-21 04:00:00 16 21 Norte 30 Norte 0 1011.9 -1.7 76
2019-04-21 03:00:00 15.9 12 Norte 26 Norte 0 1012.4 -1.5 79
2019-04-21 02:00:00 16.5 19 Norte 37 Norte 0 1013.2 -0.7 77
2019-04-21 01:00:00 17 27 Norte 41 Norte 0 1013.6 0.1 75
2019-04-21 00:00:00 17.1 27 Norte 41 Norte 0 1013.9 1 75
2019-04-20 23:00:00 17.4 26 Norte 37 Norte 0 1013.9 1.4 73
2019-04-20 22:00:00 17.8 21 Norte 45 Noroeste 0 1013.5 1.4 76
2019-04-20 21:00:00 17.9 22 Norte 55 Noroeste 0 1012.9 0.8 73
2019-04-20 20:00:00 18.7 27 Norte 48 Noroeste 0 1012.5 0.3 70
2019-04-20 19:00:00 20.3 31 Norte 45 Norte 0 1012.1 -0.6 60
2019-04-20 18:00:00 20.6 26 Norte 46 Noroeste 0 1012.1 -1.1 59
2019-04-20 17:00:00 21.9 25 Noroeste 54 Norte 0 1012.2 -1.3 54
2019-04-20 16:00:00 20.9 29 Norte 45 Norte 0 1012.7 -0.9 56
2019-04-20 15:00:00 21.7 33 Noroeste 50 Norte 0 1013.2 -0.5 51
2019-04-20 14:00:00 21.8 32 Norte 54 Noroeste 0 1013.5 0.1 51
2019-04-20 13:00:00 21.9 33 Norte 46 Norte 0 1013.6 0.2 53
2019-04-20 12:00:00 21.7 32 Norte 46 Norte 0 1013.7 0.7 55
2019-04-20 11:00:00 21 32 Norte 48 Norte 0 1013.4 0.9 55
2019-04-20 10:00:00 18.4 35 Norte 52 Norte 0 1013.4 0.8 67
2019-04-20 09:00:00 17.9 28 Norte 50 Norte 0 1013 0.4 70
2019-04-20 08:00:00 16.7 31 Norte 45 Norte 0 1012.5 -0.2 72
2019-04-20 07:00:00 16.1 16 Norte 42 Norte 0 1012.6 0 75
2019-04-20 06:00:00 16.4 28 Norte 42 Norte 0 1012.6 -1 74
2019-04-20 05:00:00 16.6 27 Norte 39 Norte 0 1012.7 -1.8 73
2019-04-20 04:00:00 16.6 19 Nordeste 33 Nordeste 0 1012.6 -2.8 70
2019-04-20 03:00:00 16.7 19 Norte 45 Norte 0 1013.6 -2.2 68
2019-04-20 02:00:00 16.7 24 Norte 45 Norte 0 1014.5 -1.5 70
2019-04-20 01:00:00 17.3 23 Norte 41 Norte 0 1015.4 -0.5 69
2019-04-20 00:00:00 17.4 23 Norte 41 Norte 0 1015.8 0.3 68
2019-04-19 23:00:00 17.7 26 Norte 41 Norte 0 1016 0.8 69
2019-04-19 22:00:00 17.4 24 Norte 42 Noroeste 0 1015.9 0.9 70
2019-04-19 21:00:00 17.6 24 Norte 45 Norte 0 1015.5 0.7 70
2019-04-19 20:00:00 18.3 28 Norte 48 Noroeste 0 1015.2 0.2 68
2019-04-19 19:00:00 19.1 31 Norte 45 Norte 0 1015 -0.5 64
2019-04-19 18:00:00 20.6 31 Norte 52 Noroeste 0 1014.8 -1.1 56
2019-04-19 17:00:00 21.4 32 Norte 48 Norte 0 1015 -1.2 53
2019-04-19 16:00:00 22.6 36 Norte 52 Norte 0 1015.5 -1.1 42
2019-04-19 15:00:00 23.1 35 Norte 54 Norte 0 1015.9 -0.9 41
2019-04-19 14:00:00 22.4 39 Norte 55 Norte 0 1016.2 -0.5 44
2019-04-19 13:00:00 22.5 37 Norte 54 Norte 0 1016.6 0.2 46
2019-04-19 12:00:00 20.4 35 Norte 50 Norte 0 1016.8 0.7 56
2019-04-19 11:00:00 19.4 35 Norte 48 Norte 0 1016.7 0.6 61
2019-04-19 10:00:00 19.5 35 Norte 48 Norte 0 1016.4 0.5 62
2019-04-19 09:00:00 17.6 26 Norte 37 Norte 0 1016.1 0.5 69
2019-04-19 08:00:00 16.7 20 Norte 37 Norte 0 1016.1 0.7 72
2019-04-19 07:00:00 16.5 28 Norte 41 Norte 0 1015.9 0.1 70
2019-04-19 06:00:00 15.9 25 Norte 42 Norte 0 1015.6 -1.1 72
2019-04-19 05:00:00 16.2 33 Norte 46 Norte 0 1015.4 -1.9 69
2019-04-19 04:00:00 16.4 31 Norte 48 Norte 0 1015.8 -1.8 70
2019-04-19 03:00:00 16.7 32 Norte 46 Norte 0 1016.7 -1 68
2019-04-19 02:00:00 16.8 28 Norte 39 Norte 0 1017.3 -0.4 72
2019-04-19 01:00:00 16.9 29 Norte 45 Norte 0 1017.6 0.3 67
2019-04-19 00:00:00 17.2 31 Norte 45 Norte 0 1017.7 1 66
2019-04-18 23:00:00 17 29 Norte 46 Norte 0 1017.7 1.4 64
2019-04-18 22:00:00 17.5 27 Norte 45 Norte 0 1017.3 1.5 63
2019-04-18 21:00:00 17.6 24 Norte 42 Norte 0 1016.7 1.1 62
2019-04-18 20:00:00 18.4 29 Norte 45 Norte 0 1016.3 0.6 59
2019-04-18 19:00:00 19.6 30 Norte 46 Norte 0 1015.8 -0.1 59
2019-04-18 18:00:00 21 31 Noroeste 48 Noroeste 0 1015.6 -0.4 49
2019-04-18 17:00:00 22.1 30 Norte 46 Norte 0 1015.7 -0.7 44
2019-04-18 16:00:00 22.6 31 Norte 48 Norte 0 1015.9 -0.8 43
2019-04-18 15:00:00 22.4 32 Norte 52 Noroeste 0 1016 -0.8 47
2019-04-18 14:00:00 22.6 32 Norte 48 Norte 0 1016.4 -0.1 46
2019-04-18 13:00:00 22.8 33 Norte 50 Norte 0 1016.7 0.5 45
2019-04-18 12:00:00 21.7 32 Norte 48 Norte 0 1016.8 1 46
2019-04-18 11:00:00 21 31 Norte 46 Norte 0 1016.5 1 51
2019-04-18 10:00:00 20 30 Norte 46 Norte 0 1016.2 1.4 56
2019-04-18 09:00:00 18.5 25 Norte 35 Norte 0 1015.8 1.3 65
2019-04-18 08:00:00 16.8 21 Norte 37 Norte 0 1015.5 1.2 73
2019-04-18 07:00:00 16.5 13 Norte 24 Norte 0 1014.8 0.3 76
2019-04-18 06:00:00 16.6 17 Norte 24 Norte 0 1014.5 -0.5 75
2019-04-18 05:00:00 16.5 12 Norte 22 Noroeste 0 1014.3 -1.2 77
2019-04-18 04:00:00 15.8 10 Norte 18 Noroeste 0 1014.5 -1.1 77
2019-04-18 03:00:00 16.4 12 Norte 22 Norte 0 1015 -0.7 76
2019-04-18 02:00:00 17.6 13 Noroeste 28 Norte 0 1015.5 0 71
2019-04-18 01:00:00 17.8 17 Norte 32 Norte 0 1015.6 0.6 76
2019-04-18 00:00:00 18.3 15 Norte 24 Norte 0 1015.7 2 74
2019-04-17 23:00:00 18.4 16 Noroeste 26 Noroeste 0 1015.5 2.3 72
2019-04-17 22:00:00 18.5 13 Noroeste 28 Norte 0 1015 2.7 72
2019-04-17 21:00:00 19.1 19 Noroeste 32 Norte 0 1013.7 1.6 70
2019-04-17 20:00:00 19.8 19 Noroeste 33 Noroeste 0 1013.2 1.7 62
2019-04-17 19:00:00 21.2 24 Noroeste 35 Noroeste 0 1012.3 0.7 58
2019-04-17 18:00:00 22 21 Noroeste 46 Noroeste 0 1012.1 0.1 55
2019-04-17 17:00:00 24.2 34 Noroeste 48 Noroeste 0 1011.5 -0.9 51
2019-04-17 16:00:00 24.2 35 Noroeste 48 Noroeste 0 1011.6 -1 48
2019-04-17 15:00:00 24.1 26 Noroeste 45 Oeste 0 1012 -0.9 54
2019-04-17 14:00:00 24.3 26 Oeste 37 Oeste 0 1012.4 -0.5 57
2019-04-17 13:00:00 24 17 Oeste 32 Oeste 0 1012.6 0.1 53
2019-04-17 12:00:00 23 10 Oeste 28 Oeste 0 1012.9 0.9 54
2019-04-17 11:00:00 21.6 14 Oeste 33 Norte 0 1012.9 1 58
2019-04-17 10:00:00 20.1 10 Oeste 39 Noroeste 0 1012.5 1 64
2019-04-17 09:00:00 18 7 Sudoeste 11 Sudoeste 0 1012 0.7 73
2019-04-17 08:00:00 16.3 8 Oeste 28 Oeste 0 1011.9 0.8 77
2019-04-17 07:00:00 15.2 5 Noroeste 8 Oeste 0 1011.5 0.2 85
2019-04-17 06:00:00 14.9 2 Oeste 8 Norte 0 1011.3 -0.3 86
2019-04-17 05:00:00 16.2 2 Noroeste 8 Noroeste 0 1011.1 -0.9 80
2019-04-17 04:00:00 16.9 5 Oeste 13 Noroeste 0 1011.3 -1.4 82
2019-04-17 03:00:00 18.1 11 Noroeste 17 Noroeste 0 1011.6 -1.5 81
2019-04-17 02:00:00 18.4 4 Norte 24 Norte 0 1012 -0.4 78
2019-04-17 01:00:00 17.9 0 Calma 17 Oeste 0 1012.7 0.8 78
2019-04-17 00:00:00 18.4 8 Sur 22 Sudeste 0 1013.1 1.6 76
2019-04-16 23:00:00 18.9 14 Noroeste 28 Oeste 0 1012.4 1.2 69
2019-04-16 22:00:00 18.5 7 Noroeste 15 Norte 0 1011.9 0.7 77
2019-04-16 21:00:00 18.6 9 Este 13 Este 0 1011.5 0.4 84
2019-04-16 20:00:00 19.3 8 Este 17 Este 0 1011.2 -0.4 79
2019-04-16 19:00:00 20.1 11 Este 18 Sudeste 0 1011.2 -0.9 76
2019-04-16 18:00:00 20.8 14 Sudeste 18 Sudeste 0 1011.1 -1.8 73
2019-04-16 17:00:00 20.9 11 Sudeste 17 Sudeste 0 1011.6 -2.2 72
2019-04-16 16:00:00 21.3 12 Este 21 Este 0 1012.1 -2.5 69
2019-04-16 15:00:00 21.6 15 Sudeste 21 Sudeste 0 1012.9 -2.2 68
2019-04-16 14:00:00 21.3 13 Sudeste 28 Este 0 1013.8 -1.6 70
2019-04-16 13:00:00 21.2 21 Este 30 Este 0 1014.6 -0.7 68
2019-04-16 12:00:00 20.8 21 Este 30 Este 0 1015.1 -0.2 69
2019-04-16 11:00:00 20.2 17 Este 26 Este 0 1015.4 0.9 71
2019-04-16 10:00:00 20.3 10 Nordeste 18 Nordeste 0 1015.3 1.3 67
2019-04-16 09:00:00 18.2 10 Nordeste 18 Norte 0 1015.3 1.5 79
2019-04-16 08:00:00 15.7 12 Norte 30 Norte 0 1014.5 0.1 87
2019-04-16 07:00:00 14.2 10 Norte 17 Norte 0 1014 -0.8 90
2019-04-16 06:00:00 14.9 13 Norte 18 Norte 0 1013.8 -1.7 88
2019-04-16 05:00:00 15.4 13 Norte 18 Norte 0 1014.4 -1.8 85
2019-04-16 04:00:00 15.1 14 Norte 17 Norte 0 1014.8 -2 86
2019-04-16 03:00:00 16.2 12 Norte 21 Nordeste 0 1015.5 -1.9 87
2019-04-16 02:00:00 17.2 12 Nordeste -- -- -- 1016.2 -1.4 86
2019-04-16 01:00:00 17.3 13 Nordeste 26 Nordeste 0 1016.8 -0.5 85
2019-04-16 00:00:00 17.9 17 Nordeste 26 Norte 0 1017.4 0.6 82
2019-04-15 23:00:00 18 14 Nordeste 30 Norte 0 1017.6 1.6 78
2019-04-15 22:00:00 18.2 21 Norte 30 Norte 0 1017.3 1.7 81
2019-04-15 21:00:00 19 21 Norte 37 Norte 0 1016.8 1.4 77
2019-04-15 20:00:00 20.6 27 Norte 37 Norte 0 1016 0.4 69
2019-04-15 19:00:00 22.7 28 Norte 39 Norte 0 1015.6 -0.2 58
2019-04-15 18:00:00 23.8 21 Nordeste 37 Nordeste 0 1015.4 -1.1 54
2019-04-15 17:00:00 23.7 22 Nordeste 37 Nordeste 0 1015.6 -1.3 51
2019-04-15 16:00:00 24.3 21 Nordeste 41 Nordeste 0 1015.8 -1.6 50
2019-04-15 15:00:00 21.8 30 Este 41 Este 0 1016.5 -1.1 66
2019-04-15 14:00:00 21.8 28 Este 42 Este 0 1016.9 -0.8 67
2019-04-15 13:00:00 24.7 25 Norte 41 Noroeste 0 1017.4 -0.1 48
2019-04-15 12:00:00 24.1 21 Norte 35 Norte 0 1017.6 0.4 47
2019-04-15 11:00:00 22.2 24 Norte 39 Norte 0 1017.7 1.4 57
2019-04-15 10:00:00 20.3 27 Norte 35 Norte 0 1017.5 1.7 63
2019-04-15 09:00:00 18.7 23 Norte 32 Norte 0 1017.2 1.9 72
2019-04-15 08:00:00 17 21 Norte 32 Norte 0 1016.3 1.2 77
2019-04-15 07:00:00 16.3 11 Norte 33 Noroeste 0 1015.8 0.8 77
2019-04-15 06:00:00 16.5 16 Noroeste 26 Noroeste 0 1015.3 0.1 77
2019-04-15 05:00:00 17 22 Noroeste 35 Norte 0 1015.1 -0.3 75
2019-04-15 04:00:00 17.3 27 Noroeste 42 Noroeste 0 1015 -0.7 78
2019-04-15 03:00:00 17.4 23 Noroeste 41 Noroeste 0 1015.2 -0.1 77
2019-04-15 02:00:00 17.5 23 Noroeste -- -- -- 1015.4 0.9 79
2019-04-15 01:00:00 18 21 Noroeste 35 Noroeste 0 1015.7 1.4 75
2019-04-15 00:00:00 18.7 17 Noroeste 46 Noroeste 0 1015.3 1.9 67
2019-04-14 23:00:00 18.3 17 Oeste 45 Oeste 0 1014.5 1.6 74
2019-04-14 22:00:00 18.7 23 Oeste 55 Oeste 0 1014.3 2.2 72
2019-04-14 21:00:00 19.4 5 Este 33 Norte 0 1013.4 1.2 68
2019-04-14 20:00:00 20.4 11 Sudoeste 45 Noroeste 0 1012.9 0.8 68
2019-04-14 19:00:00 22.1 29 Noroeste 41 Norte 0 1012.1 -0.4 62
2019-04-14 18:00:00 22.6 10 Sur 24 Oeste 0 1012.2 -0.9 67
2019-04-14 17:00:00 21.3 15 Este 24 Este 0 1012.1 -1.3 74
2019-04-14 16:00:00 21.6 14 Este 21 Sudeste 0 1012.5 -1.5 72
2019-04-14 15:00:00 21.2 11 Sudeste 17 Sudeste 0 1013.1 -0.7 73
2019-04-14 14:00:00 21.3 11 Sudeste 17 Sudeste 0 1013.4 0.2 72
2019-04-14 13:00:00 21.2 13 Sudeste 28 Este 0 1014 0.8 72
2019-04-14 12:00:00 21.7 21 Este 30 Este 0 1013.8 -0.1 71
2019-04-14 11:00:00 23.2 13 Nordeste 28 Norte 0 1013.2 0.4 55
2019-04-14 10:00:00 20.7 18 Norte 28 Noroeste 0 1013.2 0.6 67
2019-04-14 09:00:00 17.9 20 Norte 39 Norte 0 1013.9 1.1 81
2019-04-14 08:00:00 15.7 21 Norte 35 Norte 0 1012.8 -0.8 89
2019-04-14 07:00:00 16.1 28 Norte 45 Norte 0 1012.6 -1.5 86
2019-04-14 06:00:00 15.9 27 Norte 42 Norte 0 1012.8 -2.3 88
2019-04-14 05:00:00 16 24 Norte 39 Norte 0 1013.6 -1.9 88
2019-04-14 04:00:00 15.8 22 Norte 32 Norte 0 1014.1 -1.6 89
2019-04-14 03:00:00 15.6 15 Norte 24 Norte 0 1015.1 -0.8 90
2019-04-14 02:00:00 15.6 13 Norte -- -- -- 1015.5 -0.5 85
2019-04-14 01:00:00 16.3 23 Norte 39 Norte 0 1015.7 -0.3 85
2019-04-14 00:00:00 16.7 28 Norte 48 Norte 0 1015.9 0.6 84
2019-04-13 23:00:00 17 37 Norte 50 Norte 0 1016 1 82
2019-04-13 22:00:00 17.1 30 Norte 50 Norte 0 1016 1.1 81
2019-04-13 21:00:00 17.6 36 Norte 54 Norte 0 1015.3 0.4 78
2019-04-13 20:00:00 18.8 35 Norte 58 Norte 0 1015 0.1 71
2019-04-13 19:00:00 20.1 38 Norte 58 Norte 0 1014.9 -0.5 66
2019-04-13 18:00:00 21.7 40 Norte 54 Norte 0 1014.9 -1 58
2019-04-13 17:00:00 23.1 39 Norte 50 Norte 0 1014.9 -1.2 53
2019-04-13 16:00:00 23.9 35 Norte 52 Norte 0 1015.4 -1.3 50
2019-04-13 15:00:00 23.8 37 Norte 52 Norte 0 1015.9 -1.3 51
2019-04-13 14:00:00 24.1 37 Norte 50 Norte 0 1016.1 -1 47
2019-04-13 13:00:00 23.5 40 Norte 59 Norte 0 1016.7 -0.4 50
2019-04-13 12:00:00 22.4 37 Norte 52 Norte 0 1017.2 0.2 54
2019-04-13 11:00:00 20.9 33 Norte 52 Norte 0 1017.1 0.1 59
2019-04-13 10:00:00 19.5 38 Norte 50 Norte 0 1017.1 0.2 64
2019-04-13 09:00:00 17.9 37 Norte 45 Norte 0 1017 0.6 71
2019-04-13 08:00:00 15 16 Norte 28 Norte 0 1017 1 81
2019-04-13 07:00:00 15.4 20 Norte 41 Norte 0 1016.9 0.9 80
2019-04-13 06:00:00 16 30 Norte 48 Norte 0 1016.4 0.1 75
2019-04-13 05:00:00 15.9 32 Norte 50 Norte 0 1016 -1 75
2019-04-13 04:00:00 16.1 37 Norte 54 Norte 0 1016 -1.4 73
2019-04-13 03:00:00 16.1 40 Norte 61 Norte 0 1016.3 -1.1 73
2019-04-13 02:00:00 16.4 39 Norte -- -- -- 1017 -0.7 71
2019-04-13 01:00:00 16.6 44 Norte 59 Norte 0 1017.4 -0.3 68
2019-04-13 00:00:00 16.6 45 Norte 55 Norte 0 1017.4 0.6 70
2019-04-12 23:00:00 16.7 28 Norte 54 Norte 0 1017.7 1.3 68
2019-04-12 22:00:00 17 28 Norte 45 Norte 0 1017.7 1.5 69
2019-04-12 21:00:00 17.5 27 Norte 45 Norte 0 1016.8 0.8 67
2019-04-12 20:00:00 18.3 33 Norte 50 Norte 0 1016.4 0.7 63
2019-04-12 19:00:00 19.7 33 Norte 48 Norte 0 1016.2 0.3 61
2019-04-12 18:00:00 21 33 Norte 52 Norte 0 1016 0.1 55
2019-04-12 17:00:00 21.7 38 Norte 55 Norte 0 1015.7 -1 52
2019-04-12 16:00:00 22.1 44 Norte 65 Norte 0 1015.9 -1.2 49
2019-04-12 15:00:00 22.5 45 Norte 63 Norte 0 1015.9 -1.9 47
2019-04-12 14:00:00 22.2 48 Norte 63 Norte 0 1016.7 -1 47
2019-04-12 13:00:00 22.1 40 Norte 55 Norte 0 1017.1 -0.4 49
2019-04-12 12:00:00 21.4 44 Norte 61 Norte 0 1017.8 0.7 52
2019-04-12 11:00:00 20.3 37 Norte 59 Norte 0 1017.7 1.3 52
2019-04-12 10:00:00 19.2 35 Norte 61 Norte 0 1017.5 1.1 55
2019-04-12 09:00:00 17.7 41 Norte 58 Norte 0 1017.1 0.6 62
2019-04-12 08:00:00 15.9 30 Norte 48 Norte 0 1016.4 -0.1 70
2019-04-12 07:00:00 15.8 24 Norte 58 Norte 0 1016.4 -0.1 68
2019-04-12 06:00:00 15.8 16 Nordeste 46 Norte 0 1016.5 -0.5 68
2019-04-12 05:00:00 15.5 21 Norte 41 Norte 0 1016.5 -1.2 68
2019-04-12 04:00:00 15.8 17 Nordeste 45 Norte 0 1016.5 -1.9 67
2019-04-12 03:00:00 16 16 Nordeste 48 Norte 0 1017 -1.6 68
2019-04-12 02:00:00 16.1 15 Nordeste -- -- -- 1017.7 -0.7 66
2019-04-12 01:00:00 16.4 23 Norte 42 Norte 0 1018.4 0.4 67
2019-04-12 00:00:00 16.7 24 Norte 54 Norte 0 1018.6 1.3 64
2019-04-11 23:00:00 17 32 Norte 48 Norte 0 1018.4 1.6 66
2019-04-11 22:00:00 17 27 Norte 48 Norte 0 1018 1.7 65
2019-04-11 21:00:00 17.1 27 Norte 54 Norte 0 1017.3 1.2 65
2019-04-11 20:00:00 18.1 33 Norte 55 Norte 0 1016.8 1.1 64
2019-04-11 19:00:00 19.3 46 Norte 63 Norte 0 1016.3 0.4 58
2019-04-11 18:00:00 20.3 48 Norte 65 Norte 0 1016.1 -0.1 55
2019-04-11 17:00:00 21.1 41 Norte 65 Norte 0 1015.7 -1.5 53
2019-04-11 16:00:00 21.9 42 Norte 65 Norte 0 1015.9 -2 49
2019-04-11 15:00:00 22.1 48 Norte 68 Norte 0 1016.2 -2.1 48
2019-04-11 14:00:00 22 44 Norte 65 Noroeste 0 1017.2 -1.1 51
2019-04-11 13:00:00 22 38 Norte 63 Norte 0 1017.9 -0.2 50
2019-04-11 12:00:00 20.9 41 Norte 58 Norte 0 1018.3 0.5 51
2019-04-11 11:00:00 20 41 Norte 55 Norte 0 1018.3 1.1 54
2019-04-11 10:00:00 19.2 39 Norte 55 Norte 0 1018.1 1.1 58
2019-04-11 09:00:00 18.7 39 Norte 48 Norte 0 1017.8 0.9 61
2019-04-11 08:00:00 16.7 31 Norte 54 Norte 0 1017.2 0.4 67
2019-04-11 07:00:00 16.5 27 Norte 48 Norte 0 1017 -0.1 66
2019-04-11 06:00:00 16.7 30 Norte 46 Norte 0 1016.9 -0.5 66
2019-04-11 05:00:00 16.5 26 Norte 45 Norte 0 1016.8 -0.9 67
2019-04-11 04:00:00 16 28 Norte 45 Norte 0 1017.1 -0.8 70
2019-04-11 03:00:00 16.1 24 Norte 41 Norte 0 1017.4 -0.8 69
2019-04-11 02:00:00 16.1 26 Norte -- -- -- 1017.7 -0.4 70
2019-04-11 01:00:00 16.4 30 Norte 48 Norte 0 1017.9 0.8 69
2019-04-11 00:00:00 16.9 32 Norte 48 Norte 0 1018.2 1.6 67
2019-04-10 23:00:00 16.8 32 Norte 55 Norte 0 1018.1 1.7 66
2019-04-10 22:00:00 17.2 46 Norte 59 Norte 0 1017.1 0.7 66
2019-04-10 21:00:00 17.2 38 Norte 63 Norte 0 1016.6 0.5 62
2019-04-10 20:00:00 18.4 42 Norte 59 Norte 0 1016.4 0.2 65
2019-04-10 19:00:00 19.5 41 Norte 63 Norte 0 1016.4 -0.2 55
2019-04-10 18:00:00 20.8 46 Norte 67 Norte 0 1016.1 -0.4 59
2019-04-10 17:00:00 21.4 41 Norte 63 Norte 0 1016.2 -1.1 49
2019-04-10 16:00:00 22 41 Norte 58 Norte 0 1016.6 -0.9 50
2019-04-10 15:00:00 21.2 41 Norte 61 Norte 0 1016.5 -1.3 54
2019-04-10 14:00:00 20.8 36 Norte 61 Norte 0 1017.3 -0.5 57
2019-04-10 13:00:00 21.5 39 Norte 55 Norte 0 1017.5 0 54
2019-04-10 12:00:00 20.6 36 Norte 52 Norte 0 1017.8 0.6 51
2019-04-10 11:00:00 19.4 39 Norte 50 Norte 0 1017.8 0.9 56
2019-04-10 10:00:00 18 38 Norte 50 Norte 0 1017.5 0.9 62
2019-04-10 09:00:00 17.5 29 Norte 48 Norte 0 1017.2 0.7 57
2019-04-10 08:00:00 16.7 32 Norte 46 Norte 0 1016.9 0.6 58
2019-04-10 07:00:00 16 17 Norte 45 Norte 0 1016.6 0.2 61
2019-04-10 06:00:00 15.8 21 Norte 39 Norte 0 1016.5 -0.2 61
2019-04-10 05:00:00 16 31 Norte 42 Norte 0 1016.3 -1.1 62
2019-04-10 04:00:00 16.3 25 Norte 48 Norte 0 1016.4 -1.4 62
2019-04-10 03:00:00 16.7 30 Norte 48 Norte 0 1016.7 -1.5 66
2019-04-10 02:00:00 16.7 19 Norte -- -- -- 1017.4 -0.8 60
2019-04-10 01:00:00 17 26 Norte 45 Norte 0 1017.8 0.1 58
2019-04-10 00:00:00 17 22 Norte 42 Norte 0 1018.2 1.1 61
2019-04-09 23:00:00 17.4 28 Norte 42 Norte 0 1018.2 1.2 63
2019-04-09 22:00:00 17.4 24 Norte 42 Norte 0 1017.7 1 64
2019-04-09 21:00:00 17.7 26 Norte 42 Norte 0 1017.1 0.7 59
2019-04-09 20:00:00 18.3 25 Norte 41 Nordeste 0 1017 0.2 60
2019-04-09 19:00:00 19.2 30 Norte 48 Nordeste 0 1016.7 -0.3 57
2019-04-09 18:00:00 20.9 27 Norte 42 Norte 0 1016.4 -0.9 52
2019-04-09 17:00:00 20.4 33 Norte 45 Norte 0 1016.8 -1.1 57
2019-04-09 16:00:00 21.8 29 Norte 50 Norte 0 1017 -1.5 54
2019-04-09 15:00:00 22.9 38 Norte 46 Norte 0 1017.3 -1.4 53
2019-04-09 14:00:00 21.9 36 Norte 48 Norte 0 1017.9 -0.8 58
2019-04-09 13:00:00 21.2 32 Norte 46 Norte 0 1018.5 -0.1 61
2019-04-09 12:00:00 21 28 Norte 41 Noroeste 0 1018.7 0.3 60
2019-04-09 11:00:00 21.1 28 Norte 39 Norte 0 1018.7 0.6 56
2019-04-09 10:00:00 19.5 27 Norte 39 Norte 0 1018.6 0.9 62
2019-04-09 09:00:00 18.5 31 Norte 41 Norte 0 1018.4 0.9 69
2019-04-09 08:00:00 17.5 15 Norte 26 Norte 0 1018.1 1 84
2019-04-09 07:00:00 17.4 14 Norte 22 Norte 0 1017.7 0.1 82
2019-04-09 06:00:00 17.2 17 Norte 24 Norte 0 1017.5 -0.6 82
2019-04-09 05:00:00 16.1 18 Norte 24 Norte 0 1017.1 -1.5 83
2019-04-09 04:00:00 15.4 11 Norte 21 Nordeste 0 1017.6 -1.4 83
2019-04-09 03:00:00 16.2 14 Norte 26 Norte 0 1018.1 -1.1 81
2019-04-09 02:00:00 16.3 17 Norte 24 Norte 0 1018.6 -1.1 77
2019-04-09 01:00:00 16 13 Norte 21 Norte 0 1019 -0.5 76
2019-04-09 00:00:00 16.3 10 Norte 28 Norte 0 1019.2 0.7 71
2019-04-08 23:00:00 16.7 15 Norte 33 Norte 0 1019.7 1.8 66
2019-04-08 22:00:00 17.4 16 Norte 33 Noroeste 0 1019.5 2.1 61
2019-04-08 21:00:00 17.7 16 Norte 37 Norte 0 1018.5 0.9 58
2019-04-08 20:00:00 18.8 25 Norte 42 Norte 0 1017.9 0.3 55
2019-04-08 19:00:00 20.2 30 Norte 42 Norte 0 1017.4 -0.9 51
2019-04-08 18:00:00 21.3 26 Norte 41 Norte 0 1017.6 -1.1 49
2019-04-08 17:00:00 21.8 22 Noroeste 37 Noroeste 0 1017.6 -1.3 46
2019-04-08 16:00:00 22.1 22 Norte 42 Noroeste 0 1018.3 -1.1 47
2019-04-08 15:00:00 22.2 22 Norte 35 Norte 0 1018.7 -1.2 49
2019-04-08 14:00:00 22.5 26 Norte 41 Norte 0 1018.9 -0.8 50
2019-04-08 13:00:00 22.7 26 Norte 35 Norte 0 1019.4 -0.1 50
2019-04-08 12:00:00 22.3 19 Noroeste 39 Noroeste 0 1019.9 0.6 49
2019-04-08 11:00:00 21 20 Noroeste 42 Noroeste 0 1019.7 1 52
2019-04-08 10:00:00 19.3 12 Norte 22 Norte 0 1019.5 1.3 66
2019-04-08 09:00:00 17.6 11 Norte 17 Noroeste 0 1019.3 1.4 80
2019-04-08 08:00:00 16.5 13 Norte 28 Noroeste 0 1018.7 0.8 84
2019-04-08 07:00:00 16.6 18 Noroeste 30 Norte 0 1018.2 0 84
2019-04-08 06:00:00 16.3 15 Norte 24 Norte 0 1017.9 -1 88
2019-04-08 05:00:00 16.3 11 Norte 21 Norte 0 1017.9 -1.4 85
2019-04-08 04:00:00 16.1 14 Norte 24 Noroeste 0 1018.2 -1.5 82
2019-04-08 03:00:00 16.2 13 Norte 22 Noroeste 0 1018.9 -1 82
2019-04-08 02:00:00 16.6 15 Noroeste 22 Noroeste 0 1019.3 -0.7 80
2019-04-08 01:00:00 16.9 11 Noroeste 18 Noroeste 0 1019.7 0 79
2019-04-08 00:00:00 17 6 Norte 13 Norte 0 1019.9 0.7 79
2019-04-07 23:00:00 16.7 6 Norte 22 Noroeste 0 1020 1.3 79
2019-04-07 22:00:00 17.5 9 Norte 33 Norte 0 1019.7 1.4 76
2019-04-07 21:00:00 18.2 18 Norte 37 Noroeste 0 1019.2 1 73
2019-04-07 20:00:00 19.2 18 Norte 37 Norte 0 1018.7 0.4 66
2019-04-07 19:00:00 20.8 19 Noroeste 39 Norte 0 1018.3 -0.3 59
2019-04-07 18:00:00 22.3 25 Noroeste 35 Norte 0 1018.2 -0.8 53
2019-04-07 17:00:00 22.3 21 Noroeste 32 Noroeste 0 1018.3 -1.3 52
2019-04-07 16:00:00 22.3 22 Noroeste 39 Norte 0 1018.6 -1.3 52
2019-04-07 15:00:00 22.1 24 Norte 37 Norte 0 1019 -0.9 56
2019-04-07 14:00:00 22.2 26 Noroeste 42 Noroeste 0 1019.6 0.1 56
2019-04-07 13:00:00 22.4 26 Norte 42 Noroeste 0 1019.9 0.9 55
2019-04-07 12:00:00 20.4 22 Norte 45 Noroeste 0 1019.9 1.6 65
2019-04-07 11:00:00 20.6 27 Noroeste 46 Noroeste 0 1019.5 1.3 62
2019-04-07 10:00:00 19.4 23 Noroeste 42 Noroeste 0 1019 1.1 68
2019-04-07 09:00:00 17.7 23 Norte 33 Norte 0 1018.3 0.6 76
2019-04-07 08:00:00 15.9 14 Noroeste 33 Norte 0 1018.2 0.5 84
2019-04-07 07:00:00 14.7 9 Oeste 17 Oeste 0 1017.9 -0.1 82
2019-04-07 06:00:00 14.2 0 Calma 15 Norte 0 1017.7 -0.8 81
2019-04-07 05:00:00 14.7 10 Norte 18 Norte 0 1017.7 -1.6 79
2019-04-07 04:00:00 14.8 10 Norte 22 Noroeste 0 1018 -1.9 80
2019-04-07 03:00:00 15.3 15 Noroeste 21 Noroeste 0 1018.5 -1.5 77
2019-04-07 02:00:00 15.1 14 Noroeste 24 Norte 0 1019.3 -0.9 80
2019-04-07 01:00:00 15.5 11 Norte 22 Norte 0 1019.9 0.4 73
2019-04-07 00:00:00 15.5 14 Noroeste 24 Norte 0 1020 1.1 69
2019-04-06 23:00:00 16.4 17 Norte 28 Norte 0 1020.2 1.8 64
2019-04-06 22:00:00 16.6 19 Norte 46 Norte 0 1019.5 1.4 62
2019-04-06 21:00:00 17 17 Norte 33 Noroeste 0 1018.9 1 64
2019-04-06 20:00:00 17.9 22 Noroeste 42 Noroeste 0 1018.4 0.7 62
2019-04-06 19:00:00 19.1 29 Norte 42 Noroeste 0 1018.1 0 54
2019-04-06 18:00:00 19.7 27 Noroeste 42 Norte 0 1017.9 -0.2 54
2019-04-06 17:00:00 20.8 30 Noroeste 50 Norte 0 1017.7 -0.8 45
2019-04-06 16:00:00 19 28 Norte 46 Norte 0 1018.1 -0.8 59
2019-04-06 15:00:00 21 30 Norte 52 Norte 0 1018.1 -0.9 48
2019-04-06 14:00:00 20.8 28 Norte 48 Norte 0 1018.5 -0.6 46
2019-04-06 13:00:00 18.5 26 Noroeste 46 Noroeste 0 1018.9 0.6 60
2019-04-06 12:00:00 19.1 27 Norte 50 Noroeste 0 1019 1.4 59
2019-04-06 11:00:00 18 30 Noroeste 48 Norte 0 1019.1 2.1 54
2019-04-06 10:00:00 17.5 22 Noroeste 35 Noroeste 0 1018.3 2 59
2019-04-06 09:00:00 16 22 Noroeste 33 Noroeste 0 1017.6 1.8 64
2019-04-06 08:00:00 14.1 11 Norte 33 Noroeste 0 1017 1.4 77
2019-04-06 07:00:00 14.4 15 Noroeste 28 Noroeste 0 1016.3 0.7 71
2019-04-06 06:00:00 14.8 17 Noroeste 30 Noroeste 0 1015.8 -0.4 67
2019-04-06 05:00:00 14.6 18 Noroeste 33 Noroeste 0 1015.6 -1.2 71
2019-04-06 04:00:00 14.7 18 Norte 30 Norte 0 1015.6 -1.7 71
2019-04-06 03:00:00 15 19 Norte 32 Norte 0 1016.2 -1.1 75
2019-04-06 02:00:00 15.2 17 Norte 26 Norte 0 1016.8 -0.3 77
2019-04-06 01:00:00 15.1 20 Norte 30 Norte 0.4 1017.3 0.7 81
2019-04-06 00:00:00 14.6 21 Norte 41 Norte 0.1 1017.3 1.4 85
2019-04-05 23:00:00 14.9 15 Noroeste 37 Noroeste 0.1 1017.1 1.8 85
2019-04-05 22:00:00 15.8 21 Norte 37 Noroeste 0.1 1016.6 1.7 79
2019-04-05 21:00:00 15.5 24 Norte 41 Norte 0.2 1015.9 1.3 85
2019-04-05 20:00:00 17.9 21 Noroeste 54 Noroeste 0 1015.3 0.5 60
2019-04-05 19:00:00 18.7 30 Noroeste 45 Noroeste 0 1014.9 0.1 59
2019-04-05 18:00:00 19.5 35 Noroeste 50 Noroeste 0 1014.6 -0.3 65
2019-04-05 17:00:00 17.4 36 Noroeste 52 Noroeste 0.2 1014.8 -0.6 87
2019-04-05 16:00:00 18.6 30 Noroeste 45 Noroeste 0.8 1014.8 -0.8 77
2019-04-05 15:00:00 22.5 28 Noroeste 48 Noroeste 0 1014.9 -0.8 48
2019-04-05 14:00:00 21.7 27 Oeste 50 Oeste 0 1015.4 0.1 55
2019-04-05 13:00:00 21.7 28 Oeste 46 Oeste 0 1015.6 0.4 48
2019-04-05 12:00:00 21.2 26 Oeste 50 Noroeste 0 1015.7 0.9 51
2019-04-05 11:00:00 20.4 27 Oeste 39 Oeste 0 1015.3 1 53
2019-04-05 10:00:00 19.1 24 Oeste 35 Oeste 0 1015.2 1.4 58
2019-04-05 09:00:00 17.2 16 Oeste 22 Noroeste 0 1014.8 1.3 66
2019-04-05 08:00:00 15.5 13 Oeste 39 Noroeste 0 1014.3 1 68
2019-04-05 07:00:00 15.1 10 Noroeste 22 Noroeste 0 1013.8 0.4 70
2019-04-05 06:00:00 15.6 6 Noroeste 24 Noroeste 0 1013.5 -0.2 69
2019-04-05 05:00:00 16.2 9 Noroeste 21 Noroeste 0 1013.3 -0.7 68
2019-04-05 04:00:00 15.6 13 Noroeste 33 Norte 0 1013.4 -0.8 70
2019-04-05 03:00:00 14.7 25 Norte 41 Noroeste 0.1 1013.7 0.1 85
2019-04-05 02:00:00 16.7 15 Noroeste 26 Noroeste 0 1014 0.5 65
2019-04-05 01:00:00 16.3 11 Noroeste 22 Norte 0 1014.2 1.3 74
2019-04-05 00:00:00 16.6 11 Noroeste 21 Norte 0 1013.6 1.3 68
2019-04-04 23:00:00 16.6 14 Noroeste 26 Noroeste 0 1013.5 1.8 69
2019-04-04 22:00:00 17.1 15 Noroeste 33 Noroeste 0 1012.9 1.8 66
2019-04-04 21:00:00 17.4 20 Noroeste 33 Noroeste 0 1012.3 1.5 64
2019-04-04 20:00:00 18.1 24 Noroeste 35 Noroeste 0 1011.7 0.9 64
2019-04-04 19:00:00 19.9 23 Noroeste 39 Norte 0 1011.1 0.3 57
2019-04-04 18:00:00 20.8 28 Noroeste 41 Norte 0 1010.8 -0.4 54
2019-04-04 17:00:00 20.9 20 Noroeste 41 Noroeste 0 1010.8 -0.6 55
2019-04-04 16:00:00 21 24 Norte 42 Noroeste 0 1010.8 -0.7 53
2019-04-04 15:00:00 21.3 20 Noroeste 45 Noroeste 0 1011.2 -0.2 49
2019-04-04 14:00:00 22.2 19 Norte 41 Noroeste 0 1011.4 0.3 48
2019-04-04 13:00:00 21.7 24 Noroeste 41 Noroeste 0 1011.5 1.2 48
2019-04-04 12:00:00 21.2 25 Noroeste 35 Noroeste 0 1011.4 1.4 50
2019-04-04 11:00:00 20.4 19 Noroeste 41 Oeste 0 1011.1 1.5 53
2019-04-04 10:00:00 18.5 14 Norte 30 Norte 0 1010.3 1.3 69
2019-04-04 09:00:00 16.6 17 Norte 28 Norte 0 1010 1.3 79
2019-04-04 08:00:00 15.2 10 Norte 22 Norte 0 1009.6 1.2 85
2019-04-04 07:00:00 14.2 5 Norte 11 Norte 0 1009 0.4 87
2019-04-04 06:00:00 14.9 0 Calma 15 Oeste 0 1008.7 -0.4 83
2019-04-04 05:00:00 16 7 Oeste 15 Oeste 0 1008.4 -1.1 81
2019-04-04 04:00:00 15.6 9 Oeste 15 Oeste 0 1008.6 -1.6 81
2019-04-04 03:00:00 15 6 Oeste 11 Oeste 0 1009.1 -1.4 81
2019-04-04 02:00:00 15.6 6 Oeste 9 Oeste 0 1009.5 -0.9 78
2019-04-04 01:00:00 15.6 2 Oeste 13 Noroeste 0 1010.2 0.3 77
2019-04-04 00:00:00 16.1 7 Noroeste 13 Noroeste 0 1010.5 1.3 78
2019-04-03 23:00:00 16.7 0 Calma 11 Norte 0 1010.4 2 76
2019-04-03 22:00:00 17.6 6 Norte 21 Noroeste 0 1009.9 1.6 74
2019-04-03 21:00:00 18.6 14 Noroeste 28 Noroeste 0 1009.2 1.2 67
2019-04-03 20:00:00 19.7 17 Noroeste 30 Oeste 0 1008.4 0.4 62
2019-04-03 19:00:00 21.2 20 Noroeste 45 Noroeste 0 1008.3 0.2 57
2019-04-03 18:00:00 22.6 26 Oeste 37 Oeste 0 1008 0 44
2019-04-03 17:00:00 22.1 30 Oeste 42 Noroeste 0 1008 -0.7 53
2019-04-03 16:00:00 23.4 15 Oeste 35 Oeste 0 1008.1 -1.3 52
2019-04-03 15:00:00 23.8 26 Oeste 50 Oeste 0 1008 -1.9 44
2019-04-03 14:00:00 22.9 23 Oeste 35 Oeste 0 1008.7 -0.8 52
2019-04-03 13:00:00 22.7 17 Oeste 35 Sur 0 1009.4 0.2 57
2019-04-03 12:00:00 21.5 18 Sudoeste 39 Oeste 0 1009.9 1 63
2019-04-03 11:00:00 21.3 13 Oeste 32 Oeste 0 1009.5 1 62
2019-04-03 10:00:00 20.4 14 Sudoeste 24 Sudoeste 0 1009.2 1.8 66
2019-04-03 09:00:00 18.4 13 Sudoeste 22 Sur 0 1008.9 1.9 75
2019-04-03 08:00:00 16.9 5 Sur 22 Oeste 0 1008.5 1.4 81
2019-04-03 07:00:00 17.2 23 Noroeste 41 Noroeste 0 1007.4 -0.1 79
2019-04-03 06:00:00 17.1 26 Noroeste 39 Noroeste 0 1007 -0.8 82
2019-04-03 05:00:00 17.6 32 Noroeste 41 Noroeste 0 1007.1 -1.6 76
2019-04-03 04:00:00 17.6 20 Noroeste 37 Noroeste 0 1007.5 -1.6 68
2019-04-03 03:00:00 17.7 22 Noroeste 33 Noroeste 0 1007.8 -1.2 75
2019-04-03 02:00:00 18.4 11 Oeste 21 Noroeste 0 1008.7 -0.2 68
2019-04-03 01:00:00 18.9 8 Oeste 32 Noroeste 0 1009.1 0.8 52
2019-04-03 00:00:00 19.1 23 Noroeste 39 Noroeste 0 1009 1.4 51
2019-04-02 23:00:00 19.1 25 Noroeste 41 Noroeste 0 1008.9 2 57
2019-04-02 22:00:00 19.1 28 Noroeste 41 Noroeste 0 1008.3 2.1 66
2019-04-02 21:00:00 18.9 25 Noroeste 37 Noroeste 0 1007.6 1.3 78
2019-04-02 20:00:00 20.1 27 Norte 42 Noroeste 0 1006.9 0 70
2019-04-02 19:00:00 22.2 32 Norte 45 Norte 0 1006.2 -1.6 59
2019-04-02 18:00:00 24.7 23 Noroeste 32 Noroeste 0 1006.3 -2.2 50
2019-04-02 17:00:00 23.6 17 Este 24 Este 0 1006.9 -2.3 59
2019-04-02 16:00:00 22.6 19 Este 26 Este 0 1007.8 -2 64
2019-04-02 15:00:00 22.9 18 Este 28 Este 0 1008.5 -1.7 57
2019-04-02 14:00:00 22.1 17 Este 32 Este 0 1009.2 -1.4 56
2019-04-02 13:00:00 21.3 20 Este 32 Este 0 1009.8 -0.6 66
2019-04-02 12:00:00 21.1 18 Este 30 Este 0 1010.2 -0.1 64
2019-04-02 11:00:00 20.5 16 Este 30 Este 0 1010.6 0.7 66
2019-04-02 10:00:00 18.6 16 Este 28 Este 0 1010.4 0.8 74
2019-04-02 09:00:00 18.3 14 Este 30 Nordeste 0 1010.3 0.7 75
2019-04-02 08:00:00 17.4 17 Este 30 Este 0 1009.9 0.3 79
2019-04-02 07:00:00 17.3 17 Este 26 Este 0 1009.6 -0.5 81
2019-04-02 06:00:00 17 14 Este 26 Este 0 1009.6 -1.3 80
2019-04-02 05:00:00 14.8 10 Norte 21 Nordeste 0 1009.6 -2 86
2019-04-02 04:00:00 14.7 10 Norte 17 Norte 0 1010.1 -1.8 86
2019-04-02 03:00:00 14.6 8 Norte 15 Norte 0 1010.9 -1.2 87
2019-04-02 02:00:00 14.5 12 Norte 15 Norte 0 1011.6 -0.9 83
2019-04-02 01:00:00 15.1 10 Norte 18 Norte 0 1011.9 -0.3 84
2019-04-02 00:00:00 16.4 13 Norte 17 Norte 0 1012.1 0.2 83
2019-04-01 23:00:00 16.6 12 Norte 15 Norte 0 1012.5 1.1 81
2019-04-01 22:00:00 17.7 7 Nordeste 13 Este 0 1012.2 1 75
2019-04-01 21:00:00 17.9 6 Este 9 Este 0 1011.9 1 72
2019-04-01 20:00:00 18.6 5 Sudeste 11 Sudeste 0 1011.4 0.1 70
2019-04-01 19:00:00 19.6 8 Sudeste 15 Este 0 1011.2 -0.8 67
2019-04-01 18:00:00 20.1 12 Este 18 Este 0 1010.9 -1.5 64
2019-04-01 17:00:00 19.4 11 Este 17 Este 0 1011.3 -1.6 65
2019-04-01 16:00:00 19.4 10 Este 15 Este 0 1012 -1.7 66
2019-04-01 15:00:00 20.2 12 Sudeste 18 Sudeste 0 1012.4 -1.5 65
2019-04-01 14:00:00 21.1 14 Sudeste 18 Sudeste 0 1012.9 -0.9 63
2019-04-01 13:00:00 19.4 11 Este 18 Este 0 1013.7 0 66
2019-04-01 12:00:00 19.6 14 Este 26 Noroeste 0 1013.9 0.5 68
2019-04-01 11:00:00 19.7 9 Norte 21 Norte 0 1013.8 0.9 61
2019-04-01 10:00:00 19 10 Noroeste 22 Noroeste 0 1013.7 1 68
2019-04-01 09:00:00 16.6 4 Nordeste 9 Noroeste 0 1013.4 1 84
2019-04-01 08:00:00 14.8 5 Noroeste 9 Oeste 0 1012.9 0.6 91
2019-04-01 07:00:00 15.6 5 Norte 9 Norte 0 1012.7 0.2 92
2019-04-01 06:00:00 16.1 2 Norte 11 Norte 0 1012.4 -0.5 89
2019-04-01 05:00:00 16.3 11 Norte 18 Noroeste 0.1 1012.3 -1.2 88
2019-04-01 04:00:00 17.1 4 Oeste 9 Sudeste 0 1012.5 -1.5 81
2019-04-01 03:00:00 17.2 8 Noroeste 18 Noroeste 0 1012.9 -1.4 81
2019-04-01 02:00:00 17.2 13 Noroeste 18 Noroeste 0 1013.5 -0.9 81
2019-04-01 01:00:00 17.8 12 Noroeste 22 Oeste 0 1014 0 77
2019-04-01 00:00:00 17.9 2 Oeste 33 Noroeste 0 1014.3 0.9 75
2019-03-31 23:00:00 17.9 12 Noroeste 21 Noroeste 0 1014.4 1.3 76
2019-03-31 22:00:00 18.1 14 Oeste 33 Oeste 0 1014 1 73
2019-03-31 21:00:00 18.7 17 Oeste 28 Noroeste 0 1013.4 0.7 70
2019-03-31 20:00:00 19.7 18 Oeste 41 Oeste 0 1013.1 0.4 63
2019-03-31 19:00:00 20.9 21 Oeste 35 Oeste 0 1013 0.3 59
2019-03-31 18:00:00 20.8 19 Oeste 41 Oeste 0 1012.7 -0.3 60
2019-03-31 17:00:00 21.4 19 Oeste 35 Oeste 0 1012.7 -1.2 58
2019-03-31 16:00:00 22.5 22 Oeste 42 Oeste 0 1012.7 -1.8 51
2019-03-31 15:00:00 22 19 Oeste 48 Oeste 0 1013 -2 58
2019-03-31 14:00:00 20.2 20 Noroeste 41 Oeste 0 1013.9 -0.8 69
2019-03-31 13:00:00 21.6 20 Oeste 35 Oeste 0 1014.5 0 56
2019-03-31 12:00:00 21.6 18 Oeste 37 Oeste 0 1015 1.2 51
2019-03-31 11:00:00 20.3 16 Oeste 45 Oeste 0 1014.7 1.2 56
2019-03-31 10:00:00 19.6 16 Oeste 33 Noroeste 0 1014.5 1.4 63
2019-03-31 09:00:00 17.4 9 Sudoeste 26 Sur 0 1013.8 0.8 73
2019-03-31 08:00:00 15.9 7 Sur 28 Oeste 0 1013.5 0.1 78
2019-03-31 07:00:00 16.6 21 Oeste 39 Noroeste 0 1013.1 -0.4 75
2019-03-31 06:00:00 16.6 20 Oeste 32 Oeste 0 1013 -1 76
2019-03-31 05:00:00 16.3 14 Noroeste 26 Noroeste 0 1013.4 -1.3 77
2019-03-31 04:00:00 16.2 9 Noroeste 17 Noroeste 0 1013.5 -1.9 81
2019-03-31 00:00:00 17 10 Oeste 22 Oeste 0 1015.4 -0.1 72
2019-03-30 23:00:00 17.2 6 Sudoeste 21 Oeste 0 1015.6 0.6 72
2019-03-30 22:00:00 17.7 9 Oeste 37 Oeste 0 1015.7 1.4 69
2019-03-30 21:00:00 18.1 13 Oeste 39 Oeste 0 1015.5 1.9 66
2019-03-30 20:00:00 18.2 14 Oeste 35 Oeste 0 1015 1.4 66
2019-03-30 19:00:00 19.1 15 Noroeste 35 Noroeste 0 1014.3 1 59
2019-03-30 18:00:00 20.6 15 Noroeste 39 Noroeste 0 1013.6 0 47
2019-03-30 17:00:00 20 6 Sur 18 Sur 0 1013.6 -0.7 63
2019-03-30 16:00:00 19.9 14 Sudeste 21 Sudeste 0 1013.3 -1.5 66
2019-03-30 15:00:00 20.8 14 Sudeste 21 Sudeste 0 1013.6 -1.2 62
2019-03-30 14:00:00 20.4 14 Sudeste 21 Este 0 1014.3 -0.4 62
2019-03-30 13:00:00 20.4 15 Este 21 Este 0 1014.8 0.4 62
2019-03-30 12:00:00 21.3 10 Nordeste 30 Noroeste 0 1014.8 0.8 50
2019-03-30 11:00:00 20.7 13 Noroeste 26 Nordeste 0 1014.7 1 49
2019-03-30 10:00:00 20.8 15 Norte 37 Noroeste 0 1014.4 1.1 53
2019-03-30 09:00:00 18.8 11 Norte 21 Noroeste 0 1014 1.2 66
2019-03-30 08:00:00 16.2 13 Noroeste 17 Noroeste 0 1013.7 1 78
2019-03-30 07:00:00 13.7 15 Noroeste 18 Noroeste 0 1013.3 0.4 85
2019-03-30 06:00:00 13.6 13 Noroeste 18 Noroeste 0 1012.8 -0.6 85
2019-03-30 05:00:00 14.4 14 Noroeste 18 Noroeste 0 1012.7 -1.3 83
2019-03-30 04:00:00 14.2 14 Noroeste 18 Noroeste 0 1012.9 -1.4 84
2019-03-30 03:00:00 14.4 13 Noroeste 17 Noroeste 0 1013.4 -1 83
2019-03-30 02:00:00 14.3 9 Norte 15 Norte 0 1014 -0.8 85
2019-03-30 01:00:00 14.6 13 Norte 15 Norte 0 1014.3 -0.4 84
2019-03-30 00:00:00 15.3 8 Norte 13 Nordeste 0 1014.4 0.3 82
2019-03-29 23:00:00 16.1 6 Norte 21 Norte 0 1014.8 1.7 78
2019-03-29 22:00:00 16.6 9 Nordeste 32 Noroeste 0 1014.7 1.8 77
2019-03-29 21:00:00 17 18 Norte 26 Norte 0 1014.1 1.3 76
2019-03-29 20:00:00 17.6 13 Norte 42 Noroeste 0 1013.1 0.1 74
2019-03-29 19:00:00 18.8 22 Norte 30 Noroeste 0 1012.9 0 68
2019-03-29 18:00:00 20 19 Norte 37 Norte 0 1012.8 -0.9 63
2019-03-29 17:00:00 19.8 13 Este 21 Este 0 1013 -1.6 69
2019-03-29 16:00:00 20.7 14 Este 21 Este 0 1012.9 -2.2 68
2019-03-29 15:00:00 20.9 12 Sudeste 18 Este 0 1013.7 -1.9 65
2019-03-29 14:00:00 21.1 12 Sudeste 18 Sudeste 0 1014.6 -1.1 64
2019-03-29 13:00:00 20.9 14 Este 18 Sudeste 0 1015.1 -0.7 64
2019-03-29 12:00:00 20.5 13 Sudeste 18 Este 0 1015.6 0.2 63
2019-03-29 11:00:00 20.2 14 Este 21 Este 0 1015.7 0.6 64
2019-03-29 10:00:00 19.5 14 Este 21 Este 0 1015.8 1 67
2019-03-29 09:00:00 18.1 11 Nordeste 17 Nordeste 0 1015.4 0.9 72
2019-03-29 08:00:00 16 9 Norte 22 Norte 0 1015.1 0.7 78
2019-03-29 07:00:00 13.9 14 Norte 17 Norte 0 1014.8 0.2 87
2019-03-29 06:00:00 14.1 11 Norte 17 Norte 0 1014.5 -0.3 88
2019-03-29 05:00:00 14.7 13 Norte 18 Norte 0 1014.4 -0.7 86
2019-03-29 04:00:00 13.9 12 Norte 15 Norte 0 1014.6 -0.8 86
2019-03-29 03:00:00 13.9 11 Norte 15 Norte 0 1014.8 -1.1 85
2019-03-29 02:00:00 14.3 10 Norte 17 Norte 0 1015.1 -1.3 85
2019-03-29 01:00:00 14.8 10 Norte 17 Norte 0 1015.4 -1 84
2019-03-29 00:00:00 15.1 12 Norte 17 Norte 0 1015.9 -0.3 83
2019-03-28 23:00:00 15.5 11 Norte 15 Norte 0 1016.4 0.8 83
2019-03-28 22:00:00 15.8 12 Norte 17 Norte 0 1016.4 1.1 81
2019-03-28 21:00:00 16.7 10 Norte 22 Norte 0 1016.2 1.3 76
2019-03-28 20:00:00 17.7 15 Norte 26 Noroeste 0 1015.6 1 72
2019-03-28 19:00:00 18.3 9 Este 17 Este 0 1015.3 0.6 74
2019-03-28 18:00:00 19.3 13 Este 21 Este 0 1014.9 0.1 72
2019-03-28 17:00:00 19.9 12 Este 21 Este 0 1014.6 -0.7 70
2019-03-28 16:00:00 20.4 13 Este 22 Este 0 1014.7 -1 68
2019-03-28 15:00:00 20.2 15 Este 22 Este 0 1014.8 -1.2 69
2019-03-28 14:00:00 20.7 13 Sudeste 22 Este 0 1015.3 -1 66
2019-03-28 13:00:00 20.8 14 Sudeste 18 Sudeste 0 1015.7 -0.5 67
2019-03-28 12:00:00 20.4 12 Sudeste 17 Sudeste 0 1016 0 67
2019-03-28 11:00:00 20 12 Sudeste 15 Sudeste 0 1016.3 0.8 67
2019-03-28 10:00:00 19.5 11 Sudeste 13 Sudeste 0 1016.2 1 72
2019-03-28 09:00:00 18 9 Noroeste 17 Norte 0 1016 1.2 75
2019-03-28 08:00:00 15.6 3 Nordeste 15 Norte 0 1015.5 1.3 87
2019-03-28 07:00:00 13.9 12 Norte 15 Norte 0 1015.2 1 92
2019-03-28 06:00:00 14.4 10 Norte 13 Norte 0 1014.8 0.5 90
2019-03-28 05:00:00 15 6 Este 21 Norte 0 1014.2 -0.4 89
2019-03-28 04:00:00 15.3 6 Nordeste 22 Noroeste 0 1014.2 -0.6 89
2019-03-28 03:00:00 15.5 15 Noroeste 22 Norte 0 1014.3 -0.8 90
2019-03-28 02:00:00 15.5 10 Nordeste 15 Este 0 1014.6 -0.6 89
2019-03-28 01:00:00 16.1 13 Noroeste 21 Noroeste 0 1014.8 -0.2 87
2019-03-28 00:00:00 16.6 14 Noroeste 21 Norte 0 1015.1 0.6 84
2019-03-27 23:00:00 16.5 6 Norte 18 Norte 0 1015.2 1.2 84
2019-03-27 22:00:00 16.8 10 Norte 18 Norte 0 1015 1.9 83
2019-03-27 21:00:00 17.1 16 Norte 21 Norte 0 1014.5 1.9 82
2019-03-27 20:00:00 18 12 Norte 22 Norte 0 1014 2 80
2019-03-27 19:00:00 18.9 18 Norte 35 Norte 0 1013.1 1 74
2019-03-27 18:00:00 19.1 12 Este 22 Este 0 1012.6 0.6 82
2019-03-27 17:00:00 20.4 16 Este 28 Nordeste 0 1012 -0.6 73
2019-03-27 16:00:00 20.4 18 Nordeste 35 Norte 0 1012.1 -0.9 76
2019-03-27 15:00:00 21.1 26 Norte 35 Norte 0 1012 -1.2 65
2019-03-27 14:00:00 20.7 12 Sur 28 Sur 0 1012.6 -0.6 74
2019-03-27 13:00:00 20.4 21 Sur 30 Sudoeste 0 1013 0.2 79
2019-03-27 12:00:00 19.4 20 Sur 26 Sur 0 1013.2 0.9 80
2019-03-27 11:00:00 19.9 17 Sur 22 Sur 0 1013.2 1.5 80
2019-03-27 10:00:00 19.5 14 Sur 17 Sur 0 1012.8 1.6 81
2019-03-27 09:00:00 18.4 9 Sur 13 Sur 0 1012.3 1.8 80
2019-03-27 08:00:00 15.7 3 Norte 9 Oeste 0 1011.7 1.9 91
2019-03-27 07:00:00 13.6 5 Oeste 11 Oeste 0 1011.2 1.6 94
2019-03-27 06:00:00 13.3 0 Calma 9 Noroeste 0 1010.5 0.9 94
2019-03-27 05:00:00 13.4 3 Noroeste 9 Noroeste 0 1009.8 0.2 94
2019-03-27 04:00:00 14.1 8 Oeste 11 Oeste 0 1009.6 -0.1 92
2019-03-27 03:00:00 14 5 Norte 9 Nordeste 0 1009.6 -0.7 91
2019-03-27 02:00:00 15.1 3 Sudeste 11 Este 0 1009.6 -0.7 90
2019-03-27 01:00:00 14.8 6 Noroeste 13 Noroeste 0 1009.7 0 89
2019-03-27 00:00:00 15.8 3 Noroeste 9 Norte 0 1010.3 1.4 86
2019-03-26 23:00:00 16 6 Norte 13 Este 0 1010.3 2.3 84
2019-03-26 22:00:00 16.3 12 Norte 26 Norte 0 1009.7 2.4 84
2019-03-26 21:00:00 16.5 14 Noroeste 30 Noroeste 0 1008.9 2.1 82
2019-03-26 20:00:00 16.8 14 Norte 24 Noroeste 0 1008 1.8 80
2019-03-26 19:00:00 18 11 Noroeste 17 Noroeste 0 1007.3 1.3 77
2019-03-26 18:00:00 16.6 11 Sur 22 Sur 9.8 1006.8 0.5 90
2019-03-26 17:00:00 18.3 11 Sur 18 Sudeste 0 1006.2 -0.4 76
2019-03-26 16:00:00 18.7 9 Sudeste 18 Sur 0 1006 -0.6 73
2019-03-26 15:00:00 18.8 13 Sur 17 Sur 0 1006.3 -0.7 76
2019-03-26 14:00:00 18.5 10 Sur 15 Sur 0 1006.6 -0.9 75
2019-03-26 13:00:00 18.7 11 Sur 17 Sur 0 1006.6 -0.3 73
2019-03-26 12:00:00 17.1 9 Sur 18 Sur 3.5 1007 0.7 91
2019-03-26 11:00:00 16.3 19 Sur 30 Sudeste 5.2 1007.5 1.7 86
2019-03-26 10:00:00 19.5 9 Sudeste 13 Sudeste 0 1006.9 1.8 70
2019-03-26 09:00:00 18.1 8 Este 13 Este 0 1006.3 1.3 74
2019-03-26 08:00:00 16.4 9 Nordeste 15 Nordeste 0 1005.8 0.8 77
2019-03-26 07:00:00 13.5 8 Norte 11 Norte 0 1005.1 0.1 84
2019-03-26 06:00:00 15 6 Noroeste 8 Noroeste 0 1005 0.1 78
2019-03-26 05:00:00 14.5 0 Calma 8 Norte 0 1005 -0.1 80
2019-03-26 04:00:00 13.5 2 Noroeste 9 Noroeste 0 1005 -0.7 80
2019-03-26 03:00:00 14.9 6 Noroeste 9 Noroeste 0 1004.9 -0.9 75
2019-03-26 02:00:00 15.9 8 Oeste 13 Oeste 0 1005.1 -1 76
2019-03-26 01:00:00 16.2 7 Sudoeste 13 Sur 0 1005.7 -0.3 73
2019-03-26 00:00:00 17 8 Sudoeste 22 Oeste 0 1005.8 -0.7 66
2019-03-25 23:00:00 17.2 8 Oeste 21 Oeste 0 1006.1 0.1 67
2019-03-25 22:00:00 17 18 Oeste 28 Sudoeste 0 1006 0.8 77
2019-03-25 21:00:00 17.9 10 Sur 18 Sur 0 1006.5 1.7 84
2019-03-25 20:00:00 18.2 14 Sur 26 Oeste 0 1006 1.5 75
2019-03-25 19:00:00 19.3 11 Sudoeste 24 Sudoeste 0 1005.2 0.8 58
2019-03-25 18:00:00 20 19 Sudoeste 32 Sudoeste 0 1004.8 0.2 59
2019-03-25 17:00:00 22.2 26 Sur 33 Sur 0 1004.5 -0.9 51
2019-03-25 16:00:00 22.5 18 Sur 37 Sudoeste 0 1004.4 -1.7 51
2019-03-25 15:00:00 22.1 27 Sur 35 Sudoeste 0 1004.6 -1.8 54
2019-03-25 14:00:00 22.3 26 Sur 33 Sudoeste 0 1005.4 -1.6 57
2019-03-25 13:00:00 22 25 Sur 32 Sur 0 1006.1 -0.7 58
2019-03-25 12:00:00 22.7 19 Sur 30 Sudoeste 0 1006.4 -0.1 59
2019-03-25 11:00:00 22.2 17 Sudoeste 28 Sudoeste 0 1007 0.9 56
2019-03-25 10:00:00 21.3 6 Noroeste 35 Oeste 0 1006.8 0.7 60
2019-03-25 09:00:00 19.5 16 Oeste 22 Oeste 0 1006.5 0.5 68
2019-03-25 08:00:00 17.2 4 Sudoeste 18 Oeste 0 1006.1 -0.1 70
2019-03-25 07:00:00 15.6 5 Norte 11 Nordeste 0 1006.1 -0.4 71
2019-03-25 06:00:00 16.3 8 Oeste 18 Noroeste 0 1006 -0.8 62
2019-03-25 05:00:00 14.8 11 Norte 17 Norte 0 1006.2 -1.4 67
2019-03-25 04:00:00 15.5 9 Sudoeste 11 Sudoeste 0 1006.5 -2 67
2019-03-25 03:00:00 14.9 0 Calma 8 Noroeste 0 1006.8 -2.5 71
2019-03-25 02:00:00 15.4 3 Norte 8 Norte 0 1007.6 -2 73
2019-03-25 01:00:00 16.3 6 Norte 11 Noroeste 0 1008.5 -0.7 76
2019-03-25 00:00:00 16.9 9 Noroeste 18 Noroeste 0 1009.3 0.6 83